No particular awareness of the weather is required.    There are no Weather-warnings


Meteo18 Weather Cam more information Meteo18 Weather Cam


Thunder radar more information blitzortung!


Rain radar more information rain snow radar


Visit our other weather sites:

Template documentation
and downloads

And another site



Weather Underground History page Text

Daily Summary for August 2, 2017 Units:  Both    English   Metric
« Previous Day
Next Day »
Daily Weekly Monthly Yearly Custom
  High: Low: Average:
Temperature: TemperatureC °F /  -17.8 °C 15.5 °F /  -9.2 °C 22.3 °F /  -5.4 °C
Dew Point: DewpointC °F /  -17.8 °C 14.8 °F /  -9.6 °C 17.4 °F /  -8.1 °C
Humidity: Humidity % 51 % 76 %
Wind Speed: WindSpeedKMH mph /  0 km/h - 3.3 mph /  5.3 km/h
Wind Gust: WindSpeedGustKMH mph /  0 km/h - -
Wind:- - SW
Pressure: PressurehPa in /  0 hPa 1015.8 in /  34395 hPa -
Precipitation: 0.3 in /  7.62 mm    
Historical Graphs
 
 
Tabular Data for August 2, 2017
Time Temperature Dew Point Pressure Wind Wind Speed Wind Gust Humidity Rainfall Rate (Hourly)
TemperatureC °F /  -17.8 °C DewpointC °F /  -17.8 °C PressurehPa in /  0 hPa Calm     Humidity % HourlyPrecipMM in /  0 mm
00:02 17.7 °F /  -7.9 °C 16.2 °F /  -8.8 °C 1019.5 in /  34520.3 hPa Calm   3.2 mph /  5.1 km/h 91 % 0.0 in /  0 mm
00:07 17.6 °F /  -8 °C 16.3 °F /  -8.7 °C 1019.5 in /  34520.3 hPa Calm   3.2 mph /  5.1 km/h 92 % 0.0 in /  0 mm
00:12 17.6 °F /  -8 °C 16.3 °F /  -8.7 °C 1019.5 in /  34520.3 hPa Calm   3.2 mph /  5.1 km/h 92 % 0.0 in /  0 mm
00:17 17.6 °F /  -8 °C 16.3 °F /  -8.7 °C 1019.5 in /  34520.3 hPa Calm     92 % 0.0 in /  0 mm
00:22 17.5 °F /  -8.1 °C 16.2 °F /  -8.8 °C 1019.5 in /  34520.3 hPa Calm     92 % 0.0 in /  0 mm
00:27 17.4 °F /  -8.1 °C 16.1 °F /  -8.8 °C 1019.5 in /  34520.3 hPa Calm     92 % 0.0 in /  0 mm
00:32 17.3 °F /  -8.2 °C 16.0 °F /  -8.9 °C 1019.5 in /  34520.3 hPa Calm     92 % 0.0 in /  0 mm
00:37 17.3 °F /  -8.2 °C 16.0 °F /  -8.9 °C 1019.5 in /  34520.3 hPa Calm     92 % 0.0 in /  0 mm
00:42 17.2 °F /  -8.2 °C 16.1 °F /  -8.8 °C 1019.5 in /  34520.3 hPa Calm     93 % 0.0 in /  0 mm
00:52 17.2 °F /  -8.2 °C 16.1 °F /  -8.8 °C 1019.5 in /  34520.3 hPa Calm   1.6 mph /  2.6 km/h 93 % 0.0 in /  0 mm
00:57 17.1 °F /  -8.3 °C 16.0 °F /  -8.9 °C 1019.5 in /  34520.3 hPa Calm   1.6 mph /  2.6 km/h 93 % 0.0 in /  0 mm
01:02 16.9 °F /  -8.4 °C 15.8 °F /  -9 °C 1019.5 in /  34520.3 hPa Calm   1.6 mph /  2.6 km/h 93 % 0.0 in /  0 mm
01:07 16.8 °F /  -8.4 °C 15.7 °F /  -9.1 °C 1019.5 in /  34520.3 hPa Calm   1.6 mph /  2.6 km/h 93 % 0.0 in /  0 mm
01:12 16.7 °F /  -8.5 °C 15.7 °F /  -9.1 °C 1019.5 in /  34520.3 hPa Calm   1.6 mph /  2.6 km/h 94 % 0.0 in /  0 mm
01:22 16.7 °F /  -8.5 °C 15.7 °F /  -9.1 °C 1019.5 in /  34520.3 hPa Calm     94 % 0.0 in /  0 mm
01:32 16.8 °F /  -8.4 °C 15.8 °F /  -9 °C 1019.5 in /  34520.3 hPa Calm     94 % 0.0 in /  0 mm
01:37 16.8 °F /  -8.4 °C 15.8 °F /  -9 °C 1019.5 in /  34520.3 hPa Calm     94 % 0.0 in /  0 mm
01:42 16.8 °F /  -8.4 °C 15.8 °F /  -9 °C 1019.5 in /  34520.3 hPa Calm     94 % 0.0 in /  0 mm
01:47 16.6 °F /  -8.6 °C 15.6 °F /  -9.1 °C 1019.5 in /  34520.3 hPa Calm     94 % 0.0 in /  0 mm
01:52 16.7 °F /  -8.5 °C 15.9 °F /  -8.9 °C 1019.5 in /  34520.3 hPa Calm     95 % 0.0 in /  0 mm
02:02 16.7 °F /  -8.5 °C 15.7 °F /  -9.1 °C 1019.5 in /  34520.3 hPa Calm     94 % 0.0 in /  0 mm
02:07 16.7 °F /  -8.5 °C 15.7 °F /  -9.1 °C 1019.5 in /  34520.3 hPa Calm     94 % 0.0 in /  0 mm
02:12 16.7 °F /  -8.5 °C 15.7 °F /  -9.1 °C 1019.5 in /  34520.3 hPa Calm     94 % 0.0 in /  0 mm
02:17 16.6 °F /  -8.6 °C 15.6 °F /  -9.1 °C 1019.5 in /  34520.3 hPa Calm     94 % 0.0 in /  0 mm
02:22 16.4 °F /  -8.7 °C 15.4 °F /  -9.2 °C 1019.5 in /  34520.3 hPa Calm     94 % 0.0 in /  0 mm
02:27 16.4 °F /  -8.7 °C 15.4 °F /  -9.2 °C 1019.5 in /  34520.3 hPa Calm     94 % 0.0 in /  0 mm
02:32 16.4 °F /  -8.7 °C 15.4 °F /  -9.2 °C 1019.5 in /  34520.3 hPa Calm     94 % 0.0 in /  0 mm
02:37 16.4 °F /  -8.7 °C 15.4 °F /  -9.2 °C 1019.5 in /  34520.3 hPa Calm     94 % 0.0 in /  0 mm
02:42 16.3 °F /  -8.7 °C 15.3 °F /  -9.3 °C 1019.5 in /  34520.3 hPa Calm     94 % 0.0 in /  0 mm
02:47 16.3 °F /  -8.7 °C 15.3 °F /  -9.3 °C 1019.2 in /  34510.1 hPa Calm     94 % 0.0 in /  0 mm
02:52 16.2 °F /  -8.8 °C 15.2 °F /  -9.3 °C 1019.5 in /  34520.3 hPa Calm     94 % 0.0 in /  0 mm
02:57 16.2 °F /  -8.8 °C 15.4 °F /  -9.2 °C 1019.5 in /  34520.3 hPa Calm     95 % 0.0 in /  0 mm
03:02 16.2 °F /  -8.8 °C 15.4 °F /  -9.2 °C 1019.5 in /  34520.3 hPa Calm     95 % 0.0 in /  0 mm
03:07 16.2 °F /  -8.8 °C 15.4 °F /  -9.2 °C 1019.2 in /  34510.1 hPa Calm     95 % 0.0 in /  0 mm
03:12 16.2 °F /  -8.8 °C 15.4 °F /  -9.2 °C 1019.2 in /  34510.1 hPa Calm     95 % 0.0 in /  0 mm
03:17 16.2 °F /  -8.8 °C 15.4 °F /  -9.2 °C 1019.2 in /  34510.1 hPa Calm     95 % 0.0 in /  0 mm
03:22 16.1 °F /  -8.8 °C 15.3 °F /  -9.3 °C 1019.2 in /  34510.1 hPa Calm     95 % 0.0 in /  0 mm
03:27 16.1 °F /  -8.8 °C 15.3 °F /  -9.3 °C 1019.2 in /  34510.1 hPa Calm     95 % 0.0 in /  0 mm
03:32 16.1 °F /  -8.8 °C 15.3 °F /  -9.3 °C 1019.5 in /  34520.3 hPa Calm     95 % 0.0 in /  0 mm
03:37 16.2 °F /  -8.8 °C 15.4 °F /  -9.2 °C 1019.5 in /  34520.3 hPa Calm     95 % 0.0 in /  0 mm
03:42 16.2 °F /  -8.8 °C 15.4 °F /  -9.2 °C 1019.5 in /  34520.3 hPa Calm     95 % 0.0 in /  0 mm
03:47 16.1 °F /  -8.8 °C 15.3 °F /  -9.3 °C 1019.5 in /  34520.3 hPa Calm     95 % 0.0 in /  0 mm
03:52 16.0 °F /  -8.9 °C 15.2 °F /  -9.3 °C 1019.5 in /  34520.3 hPa Calm     95 % 0.0 in /  0 mm
03:57 15.9 °F /  -8.9 °C 15.1 °F /  -9.4 °C 1019.5 in /  34520.3 hPa Calm     95 % 0.0 in /  0 mm
04:02 15.9 °F /  -8.9 °C 15.1 °F /  -9.4 °C 1019.5 in /  34520.3 hPa Calm     95 % 0.0 in /  0 mm
04:07 15.9 °F /  -8.9 °C 15.1 °F /  -9.4 °C 1019.5 in /  34520.3 hPa Calm     95 % 0.0 in /  0 mm
04:12 15.9 °F /  -8.9 °C 15.1 °F /  -9.4 °C 1019.5 in /  34520.3 hPa Calm     95 % 0.0 in /  0 mm
04:17 15.9 °F /  -8.9 °C 15.1 °F /  -9.4 °C 1019.5 in /  34520.3 hPa Calm     95 % 0.0 in /  0 mm
04:22 15.9 °F /  -8.9 °C 15.1 °F /  -9.4 °C 1019.5 in /  34520.3 hPa Calm     95 % 0.0 in /  0 mm
04:27 15.8 °F /  -9 °C 15.0 °F /  -9.4 °C 1019.5 in /  34520.3 hPa Calm     95 % 0.0 in /  0 mm
04:32 15.8 °F /  -9 °C 15.0 °F /  -9.4 °C 1019.5 in /  34520.3 hPa Calm     95 % 0.0 in /  0 mm
04:37 15.8 °F /  -9 °C 15.0 °F /  -9.4 °C 1019.5 in /  34520.3 hPa Calm     95 % 0.0 in /  0 mm
04:42 15.7 °F /  -9.1 °C 14.9 °F /  -9.5 °C 1019.5 in /  34520.3 hPa Calm     95 % 0.0 in /  0 mm
04:47 15.6 °F /  -9.1 °C 15.0 °F /  -9.4 °C 1019.5 in /  34520.3 hPa Calm     96 % 0.0 in /  0 mm
04:52 15.8 °F /  -9 °C 15.2 °F /  -9.3 °C 1019.5 in /  34520.3 hPa Calm     96 % 0.0 in /  0 mm
04:57 15.8 °F /  -9 °C 15.2 °F /  -9.3 °C 1019.9 in /  34533.8 hPa NNE 1.6 mph /  2.6 km/h   96 % 0.0 in /  0 mm
05:02 15.9 °F /  -8.9 °C 15.3 °F /  -9.3 °C 1019.5 in /  34520.3 hPa North 3.2 mph /  5.1 km/h 3.2 mph /  5.1 km/h 96 % 0.0 in /  0 mm
05:12 16.2 °F /  -8.8 °C 15.6 °F /  -9.1 °C 1019.5 in /  34520.3 hPa Calm   3.2 mph /  5.1 km/h 96 % 0.0 in /  0 mm
05:17 16.2 °F /  -8.8 °C 15.6 °F /  -9.1 °C 1019.5 in /  34520.3 hPa Calm   3.2 mph /  5.1 km/h 96 % 0.0 in /  0 mm
05:22 16.0 °F /  -8.9 °C 15.2 °F /  -9.3 °C 1019.5 in /  34520.3 hPa NE 1.6 mph /  2.6 km/h 1.6 mph /  2.6 km/h 95 % 0.0 in /  0 mm
05:32 15.9 °F /  -8.9 °C 15.1 °F /  -9.4 °C 1019.5 in /  34520.3 hPa Calm   1.6 mph /  2.6 km/h 95 % 0.0 in /  0 mm
05:37 15.9 °F /  -8.9 °C 15.1 °F /  -9.4 °C 1019.5 in /  34520.3 hPa Calm   1.6 mph /  2.6 km/h 95 % 0.0 in /  0 mm
05:42 15.7 °F /  -9.1 °C 14.9 °F /  -9.5 °C 1019.5 in /  34520.3 hPa Calm   1.6 mph /  2.6 km/h 95 % 0.0 in /  0 mm
05:47 15.6 °F /  -9.1 °C 14.8 °F /  -9.6 °C 1019.5 in /  34520.3 hPa NNE 1.6 mph /  2.6 km/h 1.6 mph /  2.6 km/h 95 % 0.0 in /  0 mm
05:52 15.6 °F /  -9.1 °C 14.8 °F /  -9.6 °C 1019.9 in /  34533.8 hPa Calm   1.6 mph /  2.6 km/h 95 % 0.0 in /  0 mm
05:57 15.7 °F /  -9.1 °C 15.1 °F /  -9.4 °C 1019.9 in /  34533.8 hPa Calm   1.6 mph /  2.6 km/h 96 % 0.0 in /  0 mm
06:02 15.7 °F /  -9.1 °C 15.1 °F /  -9.4 °C 1019.5 in /  34520.3 hPa Calm   1.6 mph /  2.6 km/h 96 % 0.0 in /  0 mm
06:07 15.7 °F /  -9.1 °C 15.1 °F /  -9.4 °C 1019.5 in /  34520.3 hPa Calm     96 % 0.0 in /  0 mm
06:12 15.7 °F /  -9.1 °C 15.1 °F /  -9.4 °C 1019.5 in /  34520.3 hPa Calm   1.6 mph /  2.6 km/h 96 % 0.0 in /  0 mm
06:17 15.6 °F /  -9.1 °C 15.0 °F /  -9.4 °C 1019.5 in /  34520.3 hPa Calm   1.6 mph /  2.6 km/h 96 % 0.0 in /  0 mm
06:22 15.6 °F /  -9.1 °C 15.0 °F /  -9.4 °C 1019.9 in /  34533.8 hPa Calm   1.6 mph /  2.6 km/h 96 % 0.0 in /  0 mm
06:27 15.6 °F /  -9.1 °C 15.0 °F /  -9.4 °C 1019.9 in /  34533.8 hPa Calm     96 % 0.0 in /  0 mm
06:32 15.6 °F /  -9.1 °C 15.0 °F /  -9.4 °C 1019.9 in /  34533.8 hPa Calm     96 % 0.0 in /  0 mm
06:37 15.5 °F /  -9.2 °C 14.9 °F /  -9.5 °C 1019.9 in /  34533.8 hPa Calm     96 % 0.0 in /  0 mm
06:42 15.6 °F /  -9.1 °C 15.0 °F /  -9.4 °C 1019.9 in /  34533.8 hPa Calm     96 % 0.0 in /  0 mm
06:47 15.6 °F /  -9.1 °C 15.0 °F /  -9.4 °C 1019.9 in /  34533.8 hPa Calm     96 % 0.0 in /  0 mm
06:52 15.6 °F /  -9.1 °C 15.0 °F /  -9.4 °C 1019.9 in /  34533.8 hPa Calm     96 % 0.0 in /  0 mm
07:02 15.6 °F /  -9.1 °C 15.0 °F /  -9.4 °C 1020.2 in /  34544 hPa Calm     96 % 0.0 in /  0 mm
07:07 15.6 °F /  -9.1 °C 15.0 °F /  -9.4 °C 1020.2 in /  34544 hPa Calm     96 % 0.0 in /  0 mm
07:12 15.7 °F /  -9.1 °C 15.1 °F /  -9.4 °C 1020.2 in /  34544 hPa Calm   1.6 mph /  2.6 km/h 96 % 0.0 in /  0 mm
07:17 15.7 °F /  -9.1 °C 15.1 °F /  -9.4 °C 1019.9 in /  34533.8 hPa Calm   1.6 mph /  2.6 km/h 96 % 0.0 in /  0 mm
07:22 15.8 °F /  -9 °C 15.2 °F /  -9.3 °C 1019.9 in /  34533.8 hPa Calm   3.2 mph /  5.1 km/h 96 % 0.0 in /  0 mm
07:27 15.8 °F /  -9 °C 15.2 °F /  -9.3 °C 1019.9 in /  34533.8 hPa Calm   3.2 mph /  5.1 km/h 96 % 0.0 in /  0 mm
07:32 15.7 °F /  -9.1 °C 15.1 °F /  -9.4 °C 1019.9 in /  34533.8 hPa Calm   3.2 mph /  5.1 km/h 96 % 0.0 in /  0 mm
07:37 15.7 °F /  -9.1 °C 15.1 °F /  -9.4 °C 1019.9 in /  34533.8 hPa Calm   1.6 mph /  2.6 km/h 96 % 0.0 in /  0 mm
07:42 15.8 °F /  -9 °C 15.2 °F /  -9.3 °C 1020.2 in /  34544 hPa Calm   1.6 mph /  2.6 km/h 96 % 0.0 in /  0 mm
07:47 15.9 °F /  -8.9 °C 15.4 °F /  -9.2 °C 1020.2 in /  34544 hPa Calm     97 % 0.0 in /  0 mm
07:52 16.0 °F /  -8.9 °C 15.5 °F /  -9.2 °C 1020.2 in /  34544 hPa Calm     97 % 0.0 in /  0 mm
07:57 16.2 °F /  -8.8 °C 15.7 °F /  -9.1 °C 1020.2 in /  34544 hPa Calm     97 % 0.0 in /  0 mm
08:02 16.3 °F /  -8.7 °C 15.8 °F /  -9 °C 1020.2 in /  34544 hPa Calm     97 % 0.0 in /  0 mm
08:07 16.4 °F /  -8.7 °C 15.9 °F /  -8.9 °C 1020.2 in /  34544 hPa Calm     97 % 0.0 in /  0 mm
08:12 16.5 °F /  -8.6 °C 16.0 °F /  -8.9 °C 1020.2 in /  34544 hPa South 3.2 mph /  5.1 km/h   97 % 0.0 in /  0 mm
08:17 16.6 °F /  -8.6 °C 16.1 °F /  -8.8 °C 1020.2 in /  34544 hPa SW 3.2 mph /  5.1 km/h 4.8 mph /  7.7 km/h 97 % 0.0 in /  0 mm
08:22 16.7 °F /  -8.5 °C 16.2 °F /  -8.8 °C 1020.2 in /  34544 hPa South 1.6 mph /  2.6 km/h 4.8 mph /  7.7 km/h 97 % 0.0 in /  0 mm
08:32 16.8 °F /  -8.4 °C 16.3 °F /  -8.7 °C 1020.2 in /  34544 hPa Calm   4.8 mph /  7.7 km/h 97 % 0.0 in /  0 mm
08:37 16.9 °F /  -8.4 °C 16.4 °F /  -8.7 °C 1020.2 in /  34544 hPa Calm   3.2 mph /  5.1 km/h 97 % 0.0 in /  0 mm
08:42 17.1 °F /  -8.3 °C 16.6 °F /  -8.6 °C 1020.5 in /  34554.1 hPa SW 1.6 mph /  2.6 km/h 3.2 mph /  5.1 km/h 97 % 0.0 in /  0 mm
08:47 17.2 °F /  -8.2 °C 16.7 °F /  -8.5 °C 1020.5 in /  34554.1 hPa Calm   3.2 mph /  5.1 km/h 97 % 0.0 in /  0 mm
08:52 17.4 °F /  -8.1 °C 16.9 °F /  -8.4 °C 1020.5 in /  34554.1 hPa SSE 1.6 mph /  2.6 km/h 3.2 mph /  5.1 km/h 97 % 0.0 in /  0 mm
08:57 17.6 °F /  -8 °C 17.1 °F /  -8.3 °C 1020.2 in /  34544 hPa South 1.6 mph /  2.6 km/h 6.4 mph /  10.3 km/h 97 % 0.0 in /  0 mm
09:02 17.6 °F /  -8 °C 17.1 °F /  -8.3 °C 1020.2 in /  34544 hPa SSW 1.6 mph /  2.6 km/h 6.4 mph /  10.3 km/h 97 % 0.0 in /  0 mm
09:07 17.7 °F /  -7.9 °C 17.2 °F /  -8.2 °C 1020.2 in /  34544 hPa WSW 1.6 mph /  2.6 km/h 6.4 mph /  10.3 km/h 97 % 0.0 in /  0 mm
09:12 17.8 °F /  -7.9 °C 17.3 °F /  -8.2 °C 1020.2 in /  34544 hPa Calm   4.8 mph /  7.7 km/h 97 % 0.0 in /  0 mm
09:17 17.9 °F /  -7.8 °C 17.4 °F /  -8.1 °C 1020.2 in /  34544 hPa WSW 1.6 mph /  2.6 km/h 4.8 mph /  7.7 km/h 97 % 0.0 in /  0 mm
09:22 18.1 °F /  -7.7 °C 17.6 °F /  -8 °C 1020.2 in /  34544 hPa SW 3.2 mph /  5.1 km/h 3.2 mph /  5.1 km/h 97 % 0.0 in /  0 mm
09:27 18.1 °F /  -7.7 °C 17.5 °F /  -8.1 °C 1020.2 in /  34544 hPa SSE 3.2 mph /  5.1 km/h 3.2 mph /  5.1 km/h 96 % 0.0 in /  0 mm
09:32 18.2 °F /  -7.7 °C 17.7 °F /  -7.9 °C 1020.2 in /  34544 hPa SW 3.2 mph /  5.1 km/h 3.2 mph /  5.1 km/h 97 % 0.0 in /  0 mm
09:37 18.2 °F /  -7.7 °C 17.6 °F /  -8 °C 1020.2 in /  34544 hPa Calm   6.4 mph /  10.3 km/h 96 % 0.0 in /  0 mm
09:42 18.4 °F /  -7.6 °C 17.9 °F /  -7.8 °C 1020.2 in /  34544 hPa SSW 4.8 mph /  7.7 km/h 6.4 mph /  10.3 km/h 97 % 0.0 in /  0 mm
09:47 18.4 °F /  -7.6 °C 17.8 °F /  -7.9 °C 1020.2 in /  34544 hPa Calm   6.4 mph /  10.3 km/h 96 % 0.0 in /  0 mm
09:52 18.6 °F /  -7.4 °C 17.9 °F /  -7.8 °C 1020.2 in /  34544 hPa South 1.6 mph /  2.6 km/h 6.4 mph /  10.3 km/h 96 % 0.0 in /  0 mm
09:57 18.8 °F /  -7.3 °C 18.1 °F /  -7.7 °C 1020.2 in /  34544 hPa SSE 3.2 mph /  5.1 km/h 6.4 mph /  10.3 km/h 96 % 0.0 in /  0 mm
10:02 18.8 °F /  -7.3 °C 18.0 °F /  -7.8 °C 1020.5 in /  34554.1 hPa South 3.2 mph /  5.1 km/h 6.4 mph /  10.3 km/h 95 % 0.3 in /  7.62 mm
10:12 19.2 °F /  -7.1 °C 18.5 °F /  -7.5 °C 1020.5 in /  34554.1 hPa WSW 3.2 mph /  5.1 km/h 9.7 mph /  15.6 km/h 96 % 0.3 in /  7.62 mm
10:17 19.3 °F /  -7.1 °C 18.6 °F /  -7.4 °C 1020.5 in /  34554.1 hPa WSW 3.2 mph /  5.1 km/h 9.7 mph /  15.6 km/h 96 % 0.3 in /  7.62 mm
10:22 19.7 °F /  -6.8 °C 18.9 °F /  -7.3 °C 1020.2 in /  34544 hPa SSW 1.6 mph /  2.6 km/h 9.7 mph /  15.6 km/h 95 % 0.3 in /  7.62 mm
10:27 20.2 °F /  -6.6 °C 19.4 °F /  -7 °C 1020.5 in /  34554.1 hPa WSW 4.8 mph /  7.7 km/h 8.0 mph /  12.9 km/h 95 % 0.3 in /  7.62 mm
10:32 20.2 °F /  -6.6 °C 19.0 °F /  -7.2 °C 1020.2 in /  34544 hPa SSW 1.6 mph /  2.6 km/h 6.4 mph /  10.3 km/h 93 % 0.3 in /  7.62 mm
10:37 20.6 °F /  -6.3 °C 19.4 °F /  -7 °C 1020.2 in /  34544 hPa SSW 3.2 mph /  5.1 km/h 6.4 mph /  10.3 km/h 93 % 0.3 in /  7.62 mm
10:42 20.9 °F /  -6.2 °C 19.4 °F /  -7 °C 1020.2 in /  34544 hPa Calm   6.4 mph /  10.3 km/h 91 % 0.3 in /  7.62 mm
10:47 21.5 °F /  -5.8 °C 19.8 °F /  -6.8 °C 1020.2 in /  34544 hPa Calm   4.8 mph /  7.7 km/h 90 % 0.3 in /  7.62 mm
10:52 21.9 °F /  -5.6 °C 19.5 °F /  -6.9 °C 1020.2 in /  34544 hPa Calm   4.8 mph /  7.7 km/h 86 % 0.3 in /  7.62 mm
10:57 22.1 °F /  -5.5 °C 19.3 °F /  -7.1 °C 1020.2 in /  34544 hPa South 1.6 mph /  2.6 km/h 8.0 mph /  12.9 km/h 84 % 0.0 in /  0 mm
11:02 22.4 °F /  -5.3 °C 19.6 °F /  -6.9 °C 1020.2 in /  34544 hPa Calm   8.0 mph /  12.9 km/h 84 % 0.0 in /  0 mm
11:07 22.8 °F /  -5.1 °C 19.4 °F /  -7 °C 1020.2 in /  34544 hPa West 1.6 mph /  2.6 km/h 8.0 mph /  12.9 km/h 81 % 0.0 in /  0 mm
11:12 23.1 °F /  -4.9 °C 19.3 °F /  -7.1 °C 1020.2 in /  34544 hPa West 3.2 mph /  5.1 km/h 6.4 mph /  10.3 km/h 79 % 0.0 in /  0 mm
11:17 23.3 °F /  -4.8 °C 19.7 °F /  -6.8 °C 1020.2 in /  34544 hPa SW 1.6 mph /  2.6 km/h 6.4 mph /  10.3 km/h 80 % 0.0 in /  0 mm
11:22 23.4 °F /  -4.8 °C 19.3 °F /  -7.1 °C 1020.2 in /  34544 hPa SW 3.2 mph /  5.1 km/h 6.4 mph /  10.3 km/h 78 % 0.0 in /  0 mm
11:27 23.7 °F /  -4.6 °C 19.6 °F /  -6.9 °C 1020.2 in /  34544 hPa SW 3.2 mph /  5.1 km/h 6.4 mph /  10.3 km/h 78 % 0.0 in /  0 mm
11:32 24.1 °F /  -4.4 °C 19.2 °F /  -7.1 °C 1020.2 in /  34544 hPa Calm   6.4 mph /  10.3 km/h 74 % 0.0 in /  0 mm
11:37 23.9 °F /  -4.5 °C 19.2 °F /  -7.1 °C 1020.2 in /  34544 hPa Calm   8.0 mph /  12.9 km/h 75 % 0.0 in /  0 mm
11:42 24.4 °F /  -4.2 °C 19.2 °F /  -7.1 °C 1020.2 in /  34544 hPa SW 4.8 mph /  7.7 km/h 8.0 mph /  12.9 km/h 73 % 0.0 in /  0 mm
11:47 24.6 °F /  -4.1 °C 18.5 °F /  -7.5 °C 1020.2 in /  34544 hPa SW 1.6 mph /  2.6 km/h 8.0 mph /  12.9 km/h 69 % 0.0 in /  0 mm
11:52 24.8 °F /  -4 °C 18.0 °F /  -7.8 °C 1019.9 in /  34533.8 hPa SSW 6.4 mph /  10.3 km/h 8.0 mph /  12.9 km/h 66 % 0.0 in /  0 mm
11:57 24.8 °F /  -4 °C 18.3 °F /  -7.6 °C 1020.2 in /  34544 hPa SSE 3.2 mph /  5.1 km/h 9.7 mph /  15.6 km/h 67 % 0.0 in /  0 mm
12:02 24.9 °F /  -3.9 °C 17.4 °F /  -8.1 °C 1019.9 in /  34533.8 hPa WSW 8.0 mph /  12.9 km/h 9.7 mph /  15.6 km/h 63 % 0.0 in /  0 mm
12:07 25.0 °F /  -3.9 °C 18.2 °F /  -7.7 °C 1020.2 in /  34544 hPa South 4.8 mph /  7.7 km/h 12.9 mph /  20.8 km/h 66 % 0.0 in /  0 mm
12:12 25.2 °F /  -3.8 °C 18.4 °F /  -7.6 °C 1019.9 in /  34533.8 hPa Calm   12.9 mph /  20.8 km/h 66 % 0.0 in /  0 mm
12:17 25.3 °F /  -3.7 °C 17.5 °F /  -8.1 °C 1020.2 in /  34544 hPa West 4.8 mph /  7.7 km/h 12.9 mph /  20.8 km/h 62 % 0.0 in /  0 mm
12:22 25.5 °F /  -3.6 °C 17.4 °F /  -8.1 °C 1020.2 in /  34544 hPa WSW 4.8 mph /  7.7 km/h 9.7 mph /  15.6 km/h 61 % 0.0 in /  0 mm
12:27 25.7 °F /  -3.5 °C 17.4 °F /  -8.1 °C 1020.2 in /  34544 hPa South 6.4 mph /  10.3 km/h 9.7 mph /  15.6 km/h 60 % 0.0 in /  0 mm
12:32 25.7 °F /  -3.5 °C 17.4 °F /  -8.1 °C 1020.2 in /  34544 hPa SSW 11.3 mph /  18.2 km/h 12.9 mph /  20.8 km/h 60 % 0.0 in /  0 mm
12:37 25.6 °F /  -3.6 °C 17.3 °F /  -8.2 °C 1020.2 in /  34544 hPa WSW 3.2 mph /  5.1 km/h 16.1 mph /  25.9 km/h 60 % 0.0 in /  0 mm
12:42 25.6 °F /  -3.6 °C 17.0 °F /  -8.3 °C 1019.9 in /  34533.8 hPa SW 11.3 mph /  18.2 km/h 16.1 mph /  25.9 km/h 59 % 0.0 in /  0 mm
12:47 25.6 °F /  -3.6 °C 17.0 °F /  -8.3 °C 1019.9 in /  34533.8 hPa WSW 1.6 mph /  2.6 km/h 16.1 mph /  25.9 km/h 59 % 0.0 in /  0 mm
12:52 25.8 °F /  -3.4 °C 17.4 °F /  -8.1 °C 1019.9 in /  34533.8 hPa WSW 8.0 mph /  12.9 km/h 11.3 mph /  18.2 km/h 60 % 0.0 in /  0 mm
12:57 25.9 °F /  -3.4 °C 17.3 °F /  -8.2 °C 1019.9 in /  34533.8 hPa WSW 3.2 mph /  5.1 km/h 11.3 mph /  18.2 km/h 59 % 0.0 in /  0 mm
13:02 25.8 °F /  -3.4 °C 16.9 °F /  -8.4 °C 1019.9 in /  34533.8 hPa West 6.4 mph /  10.3 km/h 11.3 mph /  18.2 km/h 58 % 0.0 in /  0 mm
13:12 26.1 °F /  -3.3 °C 17.7 °F /  -7.9 °C 1019.9 in /  34533.8 hPa SW 11.3 mph /  18.2 km/h 11.3 mph /  18.2 km/h 60 % 0.0 in /  0 mm
13:17 26.2 °F /  -3.2 °C 17.8 °F /  -7.9 °C 1019.9 in /  34533.8 hPa SSW 9.7 mph /  15.6 km/h 16.1 mph /  25.9 km/h 60 % 0.0 in /  0 mm
13:22 26.2 °F /  -3.2 °C 17.0 °F /  -8.3 °C 1019.9 in /  34533.8 hPa SW 8.0 mph /  12.9 km/h 16.1 mph /  25.9 km/h 57 % 0.0 in /  0 mm
13:27 26.4 °F /  -3.1 °C 17.5 °F /  -8.1 °C 1019.5 in /  34520.3 hPa SW 3.2 mph /  5.1 km/h 16.1 mph /  25.9 km/h 58 % 0.0 in /  0 mm
13:32 26.5 °F /  -3.1 °C 17.6 °F /  -8 °C 1019.5 in /  34520.3 hPa SW 11.3 mph /  18.2 km/h 17.7 mph /  28.5 km/h 58 % 0.0 in /  0 mm
13:37 26.6 °F /  -3 °C 17.7 °F /  -7.9 °C 1019.5 in /  34520.3 hPa SW 9.7 mph /  15.6 km/h 17.7 mph /  28.5 km/h 58 % 0.0 in /  0 mm
13:42 26.6 °F /  -3 °C 17.7 °F /  -7.9 °C 1019.2 in /  34510.1 hPa South 3.2 mph /  5.1 km/h 17.7 mph /  28.5 km/h 58 % 0.0 in /  0 mm
13:47 26.9 °F /  -2.8 °C 17.7 °F /  -7.9 °C 1019.2 in /  34510.1 hPa South 8.0 mph /  12.9 km/h 17.7 mph /  28.5 km/h 57 % 0.0 in /  0 mm
13:52 27.1 °F /  -2.7 °C 18.1 °F /  -7.7 °C 1019.2 in /  34510.1 hPa SW 11.3 mph /  18.2 km/h 17.7 mph /  28.5 km/h 58 % 0.0 in /  0 mm
13:57 27.1 °F /  -2.7 °C 18.4 °F /  -7.6 °C 1019.2 in /  34510.1 hPa SSW 6.4 mph /  10.3 km/h 14.5 mph /  23.3 km/h 59 % 0.0 in /  0 mm
14:02 27.0 °F /  -2.8 °C 18.0 °F /  -7.8 °C 1018.8 in /  34496.6 hPa SSW 6.4 mph /  10.3 km/h 16.1 mph /  25.9 km/h 58 % 0.0 in /  0 mm
14:12 27.2 °F /  -2.7 °C 17.9 °F /  -7.8 °C 1018.8 in /  34496.6 hPa WSW 11.3 mph /  18.2 km/h 16.1 mph /  25.9 km/h 57 % 0.0 in /  0 mm
14:17 27.1 °F /  -2.7 °C 17.8 °F /  -7.9 °C 1018.8 in /  34496.6 hPa Calm   14.5 mph /  23.3 km/h 57 % 0.0 in /  0 mm
14:22 27.3 °F /  -2.6 °C 18.0 °F /  -7.8 °C 1018.8 in /  34496.6 hPa SW 11.3 mph /  18.2 km/h 14.5 mph /  23.3 km/h 57 % 0.0 in /  0 mm
14:27 27.4 °F /  -2.6 °C 17.6 °F /  -8 °C 1018.8 in /  34496.6 hPa SSW 3.2 mph /  5.1 km/h 14.5 mph /  23.3 km/h 55 % 0.0 in /  0 mm
14:32 27.4 °F /  -2.6 °C 18.4 °F /  -7.6 °C 1018.8 in /  34496.6 hPa SSW 12.9 mph /  20.8 km/h 14.5 mph /  23.3 km/h 58 % 0.0 in /  0 mm
14:37 27.2 °F /  -2.7 °C 17.4 °F /  -8.1 °C 1018.5 in /  34486.4 hPa SW 1.6 mph /  2.6 km/h 16.1 mph /  25.9 km/h 55 % 0.0 in /  0 mm
14:42 27.6 °F /  -2.4 °C 17.7 °F /  -7.9 °C 1018.5 in /  34486.4 hPa WSW 8.0 mph /  12.9 km/h 16.1 mph /  25.9 km/h 55 % 0.0 in /  0 mm
14:47 27.6 °F /  -2.4 °C 18.3 °F /  -7.6 °C 1018.5 in /  34486.4 hPa SW 8.0 mph /  12.9 km/h 16.1 mph /  25.9 km/h 57 % 0.0 in /  0 mm
14:52 27.7 °F /  -2.4 °C 18.1 °F /  -7.7 °C 1018.5 in /  34486.4 hPa WSW 8.0 mph /  12.9 km/h 16.1 mph /  25.9 km/h 56 % 0.0 in /  0 mm
14:57 27.8 °F /  -2.3 °C 17.6 °F /  -8 °C 1018.5 in /  34486.4 hPa SSW 11.3 mph /  18.2 km/h 17.7 mph /  28.5 km/h 54 % 0.0 in /  0 mm
15:02 27.7 °F /  -2.4 °C 18.1 °F /  -7.7 °C 1018.5 in /  34486.4 hPa WSW 6.4 mph /  10.3 km/h 19.3 mph /  31.1 km/h 56 % 0.0 in /  0 mm
15:07 27.9 °F /  -2.3 °C 18.0 °F /  -7.8 °C 1018.5 in /  34486.4 hPa WSW 11.3 mph /  18.2 km/h 19.3 mph /  31.1 km/h 55 % 0.0 in /  0 mm
15:12 27.9 °F /  -2.3 °C 18.0 °F /  -7.8 °C 1018.5 in /  34486.4 hPa SW 6.4 mph /  10.3 km/h 19.3 mph /  31.1 km/h 55 % 0.0 in /  0 mm
15:17 27.9 °F /  -2.3 °C 18.6 °F /  -7.4 °C 1018.2 in /  34476.3 hPa South 11.3 mph /  18.2 km/h 16.1 mph /  25.9 km/h 57 % 0.0 in /  0 mm
15:22 27.8 °F /  -2.3 °C 17.9 °F /  -7.8 °C 1018.2 in /  34476.3 hPa SW 17.7 mph /  28.5 km/h 17.7 mph /  28.5 km/h 55 % 0.0 in /  0 mm
15:27 27.8 °F /  -2.3 °C 17.9 °F /  -7.8 °C 1018.2 in /  34476.3 hPa SW 6.4 mph /  10.3 km/h 24.1 mph /  38.8 km/h 55 % 0.0 in /  0 mm
15:32 27.9 °F /  -2.3 °C 18.0 °F /  -7.8 °C 1018.2 in /  34476.3 hPa WSW 1.6 mph /  2.6 km/h 24.1 mph /  38.8 km/h 55 % 0.0 in /  0 mm
15:37 28.1 °F /  -2.2 °C 17.6 °F /  -8 °C 1018.2 in /  34476.3 hPa WSW 9.7 mph /  15.6 km/h 24.1 mph /  38.8 km/h 53 % 0.0 in /  0 mm
15:47 27.9 °F /  -2.3 °C 17.4 °F /  -8.1 °C 1018.2 in /  34476.3 hPa WSW 3.2 mph /  5.1 km/h 19.3 mph /  31.1 km/h 53 % 0.0 in /  0 mm
15:52 28.1 °F /  -2.2 °C 17.9 °F /  -7.8 °C 1017.8 in /  34462.7 hPa SW 8.0 mph /  12.9 km/h 19.3 mph /  31.1 km/h 54 % 0.0 in /  0 mm
15:57 28.3 °F /  -2.1 °C 18.4 °F /  -7.6 °C 1017.8 in /  34462.7 hPa SSE 9.7 mph /  15.6 km/h 17.7 mph /  28.5 km/h 55 % 0.0 in /  0 mm
16:02 28.4 °F /  -2 °C 17.9 °F /  -7.8 °C 1017.8 in /  34462.7 hPa SW 8.0 mph /  12.9 km/h 17.7 mph /  28.5 km/h 53 % 0.0 in /  0 mm
16:07 28.4 °F /  -2 °C 17.6 °F /  -8 °C 1017.8 in /  34462.7 hPa SW 8.0 mph /  12.9 km/h 17.7 mph /  28.5 km/h 52 % 0.0 in /  0 mm
16:12 28.4 °F /  -2 °C 18.2 °F /  -7.7 °C 1017.8 in /  34462.7 hPa West 11.3 mph /  18.2 km/h 17.7 mph /  28.5 km/h 54 % 0.0 in /  0 mm
16:17 28.6 °F /  -1.9 °C 18.4 °F /  -7.6 °C 1017.8 in /  34462.7 hPa WSW 20.9 mph /  33.6 km/h 20.9 mph /  33.6 km/h 54 % 0.0 in /  0 mm
16:22 28.4 °F /  -2 °C 17.3 °F /  -8.2 °C 1017.5 in /  34452.6 hPa WSW 3.2 mph /  5.1 km/h 20.9 mph /  33.6 km/h 51 % 0.0 in /  0 mm
16:27 28.7 °F /  -1.8 °C 18.5 °F /  -7.5 °C 1017.5 in /  34452.6 hPa WSW 12.9 mph /  20.8 km/h 20.9 mph /  33.6 km/h 54 % 0.0 in /  0 mm
16:32 28.7 °F /  -1.8 °C 18.8 °F /  -7.3 °C 1017.5 in /  34452.6 hPa WSW 3.2 mph /  5.1 km/h 20.9 mph /  33.6 km/h 55 % 0.0 in /  0 mm
16:37 28.8 °F /  -1.8 °C 18.3 °F /  -7.6 °C 1017.5 in /  34452.6 hPa SW 1.6 mph /  2.6 km/h 17.7 mph /  28.5 km/h 53 % 0.0 in /  0 mm
16:42 28.8 °F /  -1.8 °C 18.3 °F /  -7.6 °C 1017.8 in /  34462.7 hPa WSW 6.4 mph /  10.3 km/h 17.7 mph /  28.5 km/h 53 % 0.0 in /  0 mm
16:47 28.7 °F /  -1.8 °C 17.9 °F /  -7.8 °C 1017.8 in /  34462.7 hPa WSW 11.3 mph /  18.2 km/h 20.9 mph /  33.6 km/h 52 % 0.0 in /  0 mm
16:52 28.7 °F /  -1.8 °C 19.1 °F /  -7.2 °C 1017.5 in /  34452.6 hPa WSW 9.7 mph /  15.6 km/h 20.9 mph /  33.6 km/h 56 % 0.0 in /  0 mm
16:57 28.7 °F /  -1.8 °C 17.9 °F /  -7.8 °C 1017.5 in /  34452.6 hPa SW 3.2 mph /  5.1 km/h 20.9 mph /  33.6 km/h 52 % 0.0 in /  0 mm
17:02 28.7 °F /  -1.8 °C 18.5 °F /  -7.5 °C 1017.5 in /  34452.6 hPa West 8.0 mph /  12.9 km/h 11.3 mph /  18.2 km/h 54 % 0.0 in /  0 mm
17:07 28.7 °F /  -1.8 °C 18.2 °F /  -7.7 °C 1017.5 in /  34452.6 hPa West 9.7 mph /  15.6 km/h 17.7 mph /  28.5 km/h 53 % 0.0 in /  0 mm
17:12 28.7 °F /  -1.8 °C 18.2 °F /  -7.7 °C 1017.5 in /  34452.6 hPa West 3.2 mph /  5.1 km/h 17.7 mph /  28.5 km/h 53 % 0.0 in /  0 mm
17:17 28.7 °F /  -1.8 °C 18.5 °F /  -7.5 °C 1017.5 in /  34452.6 hPa West 11.3 mph /  18.2 km/h 17.7 mph /  28.5 km/h 54 % 0.0 in /  0 mm
17:22 28.6 °F /  -1.9 °C 18.4 °F /  -7.6 °C 1017.2 in /  34442.4 hPa WSW 9.7 mph /  15.6 km/h 16.1 mph /  25.9 km/h 54 % 0.0 in /  0 mm
17:27 28.6 °F /  -1.9 °C 18.4 °F /  -7.6 °C 1017.2 in /  34442.4 hPa WSW 4.8 mph /  7.7 km/h 16.1 mph /  25.9 km/h 54 % 0.0 in /  0 mm
17:32 28.7 °F /  -1.8 °C 18.5 °F /  -7.5 °C 1017.2 in /  34442.4 hPa SW 9.7 mph /  15.6 km/h 16.1 mph /  25.9 km/h 54 % 0.0 in /  0 mm
17:37 28.8 °F /  -1.8 °C 18.3 °F /  -7.6 °C 1017.2 in /  34442.4 hPa SW 3.2 mph /  5.1 km/h 16.1 mph /  25.9 km/h 53 % 0.0 in /  0 mm
17:42 29.0 °F /  -1.7 °C 18.5 °F /  -7.5 °C 1017.2 in /  34442.4 hPa West 11.3 mph /  18.2 km/h 16.1 mph /  25.9 km/h 53 % 0.0 in /  0 mm
17:47 29.0 °F /  -1.7 °C 18.7 °F /  -7.4 °C 1017.2 in /  34442.4 hPa WSW 9.7 mph /  15.6 km/h 14.5 mph /  23.3 km/h 54 % 0.0 in /  0 mm
17:52 29.1 °F /  -1.6 °C 18.5 °F /  -7.5 °C 1017.2 in /  34442.4 hPa West 9.7 mph /  15.6 km/h 16.1 mph /  25.9 km/h 53 % 0.0 in /  0 mm
17:57 29.1 °F /  -1.6 °C 17.9 °F /  -7.8 °C 1017.2 in /  34442.4 hPa WSW 8.0 mph /  12.9 km/h 17.7 mph /  28.5 km/h 51 % 0.0 in /  0 mm
18:02 29.1 °F /  -1.6 °C 18.8 °F /  -7.3 °C 1016.8 in /  34428.8 hPa SW 12.9 mph /  20.8 km/h 17.7 mph /  28.5 km/h 54 % 0.0 in /  0 mm
18:07 29.1 °F /  -1.6 °C 18.2 °F /  -7.7 °C 1016.8 in /  34428.8 hPa SW 6.4 mph /  10.3 km/h 16.1 mph /  25.9 km/h 52 % 0.0 in /  0 mm
18:12 29.2 °F /  -1.6 °C 18.3 °F /  -7.6 °C 1016.8 in /  34428.8 hPa SW 8.0 mph /  12.9 km/h 16.1 mph /  25.9 km/h 52 % 0.0 in /  0 mm
18:17 29.2 °F /  -1.6 °C 18.3 °F /  -7.6 °C 1016.8 in /  34428.8 hPa South 3.2 mph /  5.1 km/h 16.1 mph /  25.9 km/h 52 % 0.0 in /  0 mm
18:22 29.3 °F /  -1.5 °C 19.9 °F /  -6.7 °C 1016.5 in /  34418.7 hPa SW 6.4 mph /  10.3 km/h 16.1 mph /  25.9 km/h 57 % 0.0 in /  0 mm
18:27 29.4 °F /  -1.4 °C 19.7 °F /  -6.8 °C 1016.5 in /  34418.7 hPa SW 3.2 mph /  5.1 km/h 12.9 mph /  20.8 km/h 56 % 0.0 in /  0 mm
18:32 29.5 °F /  -1.4 °C 19.2 °F /  -7.1 °C 1016.5 in /  34418.7 hPa SSW 6.4 mph /  10.3 km/h 11.3 mph /  18.2 km/h 54 % 0.0 in /  0 mm
18:37 29.4 °F /  -1.4 °C 18.8 °F /  -7.3 °C 1016.1 in /  34405.1 hPa SW 6.4 mph /  10.3 km/h 9.7 mph /  15.6 km/h 53 % 0.0 in /  0 mm
18:42 29.3 °F /  -1.5 °C 19.0 °F /  -7.2 °C 1016.1 in /  34405.1 hPa SW 4.8 mph /  7.7 km/h 12.9 mph /  20.8 km/h 54 % 0.0 in /  0 mm
18:47 29.3 °F /  -1.5 °C 19.0 °F /  -7.2 °C 1016.1 in /  34405.1 hPa WSW 4.8 mph /  7.7 km/h 12.9 mph /  20.8 km/h 54 % 0.0 in /  0 mm
18:52 29.3 °F /  -1.5 °C 19.3 °F /  -7.1 °C 1016.1 in /  34405.1 hPa WSW 4.8 mph /  7.7 km/h 12.9 mph /  20.8 km/h 55 % 0.0 in /  0 mm
18:57 29.2 °F /  -1.6 °C 18.9 °F /  -7.3 °C 1016.1 in /  34405.1 hPa SW 6.4 mph /  10.3 km/h 12.9 mph /  20.8 km/h 54 % 0.0 in /  0 mm
19:02 29.3 °F /  -1.5 °C 18.7 °F /  -7.4 °C 1016.1 in /  34405.1 hPa SW 9.7 mph /  15.6 km/h 16.1 mph /  25.9 km/h 53 % 0.0 in /  0 mm
19:07 29.3 °F /  -1.5 °C 18.7 °F /  -7.4 °C 1016.1 in /  34405.1 hPa WSW 6.4 mph /  10.3 km/h 16.1 mph /  25.9 km/h 53 % 0.0 in /  0 mm
19:12 29.4 °F /  -1.4 °C 19.4 °F /  -7 °C 1016.1 in /  34405.1 hPa SW 6.4 mph /  10.3 km/h 14.5 mph /  23.3 km/h 55 % 0.0 in /  0 mm
19:17 29.4 °F /  -1.4 °C 19.1 °F /  -7.2 °C 1016.1 in /  34405.1 hPa SSW 4.8 mph /  7.7 km/h 12.9 mph /  20.8 km/h 54 % 0.0 in /  0 mm
19:22 29.4 °F /  -1.4 °C 19.1 °F /  -7.2 °C 1016.1 in /  34405.1 hPa WSW 4.8 mph /  7.7 km/h 12.9 mph /  20.8 km/h 54 % 0.0 in /  0 mm
19:27 29.4 °F /  -1.4 °C 19.4 °F /  -7 °C 1016.1 in /  34405.1 hPa WSW 6.4 mph /  10.3 km/h 12.9 mph /  20.8 km/h 55 % 0.0 in /  0 mm
19:32 29.4 °F /  -1.4 °C 19.7 °F /  -6.8 °C 1015.8 in /  34395 hPa SW 9.7 mph /  15.6 km/h 12.9 mph /  20.8 km/h 56 % 0.0 in /  0 mm
19:37 29.3 °F /  -1.5 °C 19.3 °F /  -7.1 °C 1015.8 in /  34395 hPa West 8.0 mph /  12.9 km/h 14.5 mph /  23.3 km/h 55 % 0.0 in /  0 mm
19:42 29.3 °F /  -1.5 °C 19.3 °F /  -7.1 °C 1016.1 in /  34405.1 hPa WSW 6.4 mph /  10.3 km/h 14.5 mph /  23.3 km/h 55 % 0.0 in /  0 mm
19:47 29.3 °F /  -1.5 °C 19.3 °F /  -7.1 °C 1016.1 in /  34405.1 hPa SW 4.8 mph /  7.7 km/h 14.5 mph /  23.3 km/h 55 % 0.0 in /  0 mm
19:52 29.3 °F /  -1.5 °C 19.6 °F /  -6.9 °C 1015.8 in /  34395 hPa SW 6.4 mph /  10.3 km/h 9.7 mph /  15.6 km/h 56 % 0.0 in /  0 mm
19:57 29.3 °F /  -1.5 °C 19.6 °F /  -6.9 °C 1015.8 in /  34395 hPa SW 1.6 mph /  2.6 km/h 9.7 mph /  15.6 km/h 56 % 0.0 in /  0 mm
20:02 29.2 °F /  -1.6 °C 19.5 °F /  -6.9 °C 1015.8 in /  34395 hPa SSW 4.8 mph /  7.7 km/h 9.7 mph /  15.6 km/h 56 % 0.0 in /  0 mm
20:07 29.2 °F /  -1.6 °C 19.5 °F /  -6.9 °C 1015.8 in /  34395 hPa SW 6.4 mph /  10.3 km/h 8.0 mph /  12.9 km/h 56 % 0.0 in /  0 mm
20:12 29.0 °F /  -1.7 °C 19.0 °F /  -7.2 °C 1015.8 in /  34395 hPa WSW 8.0 mph /  12.9 km/h 11.3 mph /  18.2 km/h 55 % 0.0 in /  0 mm
20:17 28.8 °F /  -1.8 °C 19.1 °F /  -7.2 °C 1015.8 in /  34395 hPa SW 6.4 mph /  10.3 km/h 12.9 mph /  20.8 km/h 56 % 0.0 in /  0 mm
20:27 28.4 °F /  -2 °C 19.1 °F /  -7.2 °C 1015.8 in /  34395 hPa SW 4.8 mph /  7.7 km/h 12.9 mph /  20.8 km/h 57 % 0.0 in /  0 mm
20:32 28.2 °F /  -2.1 °C 19.4 °F /  -7 °C 1015.8 in /  34395 hPa SW 3.2 mph /  5.1 km/h 9.7 mph /  15.6 km/h 59 % 0.0 in /  0 mm
20:37 27.9 °F /  -2.3 °C 19.7 °F /  -6.8 °C 1015.8 in /  34395 hPa SW 3.2 mph /  5.1 km/h 9.7 mph /  15.6 km/h 61 % 0.0 in /  0 mm
20:42 27.8 °F /  -2.3 °C 19.6 °F /  -6.9 °C 1015.8 in /  34395 hPa SSW 3.2 mph /  5.1 km/h 9.7 mph /  15.6 km/h 61 % 0.0 in /  0 mm
20:47 27.6 °F /  -2.4 °C 19.7 °F /  -6.8 °C 1015.8 in /  34395 hPa SW 4.8 mph /  7.7 km/h 6.4 mph /  10.3 km/h 62 % 0.0 in /  0 mm
20:52 27.4 °F /  -2.6 °C 19.7 °F /  -6.8 °C 1015.8 in /  34395 hPa SSW 3.2 mph /  5.1 km/h 6.4 mph /  10.3 km/h 63 % 0.0 in /  0 mm
20:57 27.1 °F /  -2.7 °C 20.0 °F /  -6.7 °C 1015.8 in /  34395 hPa SSW 1.6 mph /  2.6 km/h 6.4 mph /  10.3 km/h 65 % 0.0 in /  0 mm
21:02 26.8 °F /  -2.9 °C 19.7 °F /  -6.8 °C 1015.8 in /  34395 hPa SSW 1.6 mph /  2.6 km/h 6.4 mph /  10.3 km/h 65 % 0.0 in /  0 mm
21:07 26.6 °F /  -3 °C 20.0 °F /  -6.7 °C 1016.1 in /  34405.1 hPa SW 3.2 mph /  5.1 km/h 4.8 mph /  7.7 km/h 67 % 0.0 in /  0 mm
21:12 26.4 °F /  -3.1 °C 19.8 °F /  -6.8 °C 1016.1 in /  34405.1 hPa SW 3.2 mph /  5.1 km/h 3.2 mph /  5.1 km/h 67 % 0.0 in /  0 mm
21:17 26.5 °F /  -3.1 °C 19.4 °F /  -7 °C 1016.1 in /  34405.1 hPa SW 4.8 mph /  7.7 km/h 4.8 mph /  7.7 km/h 65 % 0.0 in /  0 mm
21:22 26.6 °F /  -3 °C 19.5 °F /  -6.9 °C 1016.1 in /  34405.1 hPa SW 4.8 mph /  7.7 km/h 4.8 mph /  7.7 km/h 65 % 0.0 in /  0 mm
21:27 26.6 °F /  -3 °C 19.5 °F /  -6.9 °C 1016.1 in /  34405.1 hPa SSW 4.8 mph /  7.7 km/h 8.0 mph /  12.9 km/h 65 % 0.0 in /  0 mm
21:32 26.4 °F /  -3.1 °C 19.3 °F /  -7.1 °C 1016.1 in /  34405.1 hPa WSW 4.8 mph /  7.7 km/h 8.0 mph /  12.9 km/h 65 % 0.0 in /  0 mm
21:37 26.5 °F /  -3.1 °C 19.4 °F /  -7 °C 1016.1 in /  34405.1 hPa SW 4.8 mph /  7.7 km/h 8.0 mph /  12.9 km/h 65 % 0.0 in /  0 mm
21:42 26.4 °F /  -3.1 °C 19.5 °F /  -6.9 °C 1016.1 in /  34405.1 hPa SW 6.4 mph /  10.3 km/h 8.0 mph /  12.9 km/h 66 % 0.0 in /  0 mm
21:47 26.2 °F /  -3.2 °C 19.3 °F /  -7.1 °C 1016.1 in /  34405.1 hPa SW 6.4 mph /  10.3 km/h 8.0 mph /  12.9 km/h 66 % 0.0 in /  0 mm
21:52 26.1 °F /  -3.3 °C 19.5 °F /  -6.9 °C 1016.1 in /  34405.1 hPa SW 6.4 mph /  10.3 km/h 8.0 mph /  12.9 km/h 67 % 0.0 in /  0 mm
21:57 25.9 °F /  -3.4 °C 19.5 °F /  -6.9 °C 1016.1 in /  34405.1 hPa SW 4.8 mph /  7.7 km/h 8.0 mph /  12.9 km/h 68 % 0.0 in /  0 mm
22:02 25.9 °F /  -3.4 °C 19.3 °F /  -7.1 °C 1016.1 in /  34405.1 hPa SW 4.8 mph /  7.7 km/h 8.0 mph /  12.9 km/h 67 % 0.0 in /  0 mm
22:12 26.0 °F /  -3.3 °C 19.4 °F /  -7 °C 1016.5 in /  34418.7 hPa WSW 3.2 mph /  5.1 km/h 9.7 mph /  15.6 km/h 67 % 0.0 in /  0 mm
22:17 25.5 °F /  -3.6 °C 19.6 °F /  -6.9 °C 1016.5 in /  34418.7 hPa WSW 1.6 mph /  2.6 km/h 9.7 mph /  15.6 km/h 70 % 0.0 in /  0 mm
22:22 25.2 °F /  -3.8 °C 19.6 °F /  -6.9 °C 1016.5 in /  34418.7 hPa West 1.6 mph /  2.6 km/h 9.7 mph /  15.6 km/h 71 % 0.0 in /  0 mm
22:27 24.9 °F /  -3.9 °C 19.5 °F /  -6.9 °C 1016.5 in /  34418.7 hPa WSW 1.6 mph /  2.6 km/h 8.0 mph /  12.9 km/h 72 % 0.0 in /  0 mm
22:32 24.9 °F /  -3.9 °C 19.5 °F /  -6.9 °C 1016.5 in /  34418.7 hPa Calm   6.4 mph /  10.3 km/h 72 % 0.0 in /  0 mm
22:37 24.8 °F /  -4 °C 19.4 °F /  -7 °C 1016.5 in /  34418.7 hPa West 3.2 mph /  5.1 km/h 4.8 mph /  7.7 km/h 72 % 0.0 in /  0 mm
22:42 24.9 °F /  -3.9 °C 19.5 °F /  -6.9 °C 1016.5 in /  34418.7 hPa WSW 3.2 mph /  5.1 km/h 4.8 mph /  7.7 km/h 72 % 0.0 in /  0 mm
22:47 24.9 °F /  -3.9 °C 19.5 °F /  -6.9 °C 1016.5 in /  34418.7 hPa Calm   4.8 mph /  7.7 km/h 72 % 0.0 in /  0 mm
22:52 24.4 °F /  -4.2 °C 19.5 °F /  -6.9 °C 1016.5 in /  34418.7 hPa Calm   4.8 mph /  7.7 km/h 74 % 0.0 in /  0 mm
22:57 23.9 °F /  -4.5 °C 19.4 °F /  -7 °C 1016.5 in /  34418.7 hPa Calm   4.8 mph /  7.7 km/h 76 % 0.0 in /  0 mm
23:02 23.7 °F /  -4.6 °C 19.4 °F /  -7 °C 1016.5 in /  34418.7 hPa Calm   1.6 mph /  2.6 km/h 77 % 0.0 in /  0 mm
23:07 23.3 °F /  -4.8 °C 19.5 °F /  -6.9 °C 1016.5 in /  34418.7 hPa Calm   3.2 mph /  5.1 km/h 79 % 0.0 in /  0 mm
23:12 23.1 °F /  -4.9 °C 19.3 °F /  -7.1 °C 1016.8 in /  34428.8 hPa Calm   3.2 mph /  5.1 km/h 79 % 0.0 in /  0 mm
23:17 22.9 °F /  -5.1 °C 19.3 °F /  -7.1 °C 1016.5 in /  34418.7 hPa Calm   3.2 mph /  5.1 km/h 80 % 0.0 in /  0 mm
23:27 22.7 °F /  -5.2 °C 19.3 °F /  -7.1 °C 1016.8 in /  34428.8 hPa Calm     81 % 0.0 in /  0 mm
23:32 22.4 °F /  -5.3 °C 19.2 °F /  -7.1 °C 1016.8 in /  34428.8 hPa Calm     82 % 0.0 in /  0 mm
23:37 22.2 °F /  -5.4 °C 19.0 °F /  -7.2 °C 1016.5 in /  34418.7 hPa Calm     82 % 0.0 in /  0 mm
23:42 22.1 °F /  -5.5 °C 19.1 °F /  -7.2 °C 1016.5 in /  34418.7 hPa Calm     83 % 0.0 in /  0 mm
23:47 22.1 °F /  -5.5 °C 19.1 °F /  -7.2 °C 1016.8 in /  34428.8 hPa Calm     83 % 0.0 in /  0 mm
23:52 22.2 °F /  -5.4 °C 19.2 °F /  -7.1 °C 1016.5 in /  34418.7 hPa Calm   1.6 mph /  2.6 km/h 83 % 0.0 in /  0 mm
23:57 22.2 °F /  -5.4 °C 19.0 °F /  -7.2 °C 1016.8 in /  34428.8 hPa Calm   1.6 mph /  2.6 km/h 82 % 0.0 in /  0 mm
Meteo18
Compliments of Weather Underground - 4 mb

Script developed by  Jim McMurry - jmcmurry@mwt.net Adapted for the template by  Wim van der Kuil - Leuven-Template.eu

You find our weather info also at:

European Weather Network

Weather Underground

Equipment we use:

Weather-station
Davis Vue

Weather-program
Meteobridge

Weather-server
Raspberry PI 2 B+

Provider
1 and 1

Davis Vue

Meteobridge

Raspberry PI 2 B+

1 and 1